sensor_id;sensor_type;location;lat;lon;timestamp;temperature;humidity
7341;DHT22;6870;50.944;6.932;2022-10-31T00:01:15;23.50;40.70
7341;DHT22;6870;50.944;6.932;2022-10-31T00:03:45;23.40;41.10
7341;DHT22;6870;50.944;6.932;2022-10-31T00:06:14;23.50;41.00
7341;DHT22;6870;50.944;6.932;2022-10-31T00:08:44;23.50;41.60
7341;DHT22;6870;50.944;6.932;2022-10-31T00:11:12;23.30;41.30
7341;DHT22;6870;50.944;6.932;2022-10-31T00:13:40;23.20;41.50
7341;DHT22;6870;50.944;6.932;2022-10-31T00:16:15;23.20;41.20
7341;DHT22;6870;50.944;6.932;2022-10-31T00:18:43;22.90;41.40
7341;DHT22;6870;50.944;6.932;2022-10-31T00:21:11;23.00;41.60
7341;DHT22;6870;50.944;6.932;2022-10-31T00:23:39;23.40;42.00
7341;DHT22;6870;50.944;6.932;2022-10-31T00:26:07;22.80;40.90
7341;DHT22;6870;50.944;6.932;2022-10-31T00:28:35;23.40;42.20
7341;DHT22;6870;50.944;6.932;2022-10-31T00:31:05;22.80;41.20
7341;DHT22;6870;50.944;6.932;2022-10-31T00:33:37;23.10;41.40
7341;DHT22;6870;50.944;6.932;2022-10-31T00:36:07;23.40;42.20
7341;DHT22;6870;50.944;6.932;2022-10-31T00:38:38;23.10;42.00
7341;DHT22;6870;50.944;6.932;2022-10-31T00:41:06;22.90;41.80
7341;DHT22;6870;50.944;6.932;2022-10-31T00:43:34;23.10;41.50
7341;DHT22;6870;50.944;6.932;2022-10-31T00:46:02;23.20;42.00
7341;DHT22;6870;50.944;6.932;2022-10-31T00:48:30;23.40;42.00
7341;DHT22;6870;50.944;6.932;2022-10-31T00:51:00;22.80;41.70
7341;DHT22;6870;50.944;6.932;2022-10-31T00:53:28;22.80;41.40
7341;DHT22;6870;50.944;6.932;2022-10-31T00:55:56;23.10;42.10
7341;DHT22;6870;50.944;6.932;2022-10-31T00:58:24;22.80;41.70
7341;DHT22;6870;50.944;6.932;2022-10-31T01:00:52;22.90;41.30
7341;DHT22;6870;50.944;6.932;2022-10-31T01:03:23;22.90;42.00
7341;DHT22;6870;50.944;6.932;2022-10-31T01:05:56;22.90;42.00
7341;DHT22;6870;50.944;6.932;2022-10-31T01:08:29;22.80;41.80
7341;DHT22;6870;50.944;6.932;2022-10-31T01:11:03;22.70;41.70
7341;DHT22;6870;50.944;6.932;2022-10-31T01:13:33;22.80;41.70
7341;DHT22;6870;50.944;6.932;2022-10-31T01:16:02;23.10;42.10
7341;DHT22;6870;50.944;6.932;2022-10-31T01:18:32;22.90;42.10
7341;DHT22;6870;50.944;6.932;2022-10-31T01:21:04;23.10;42.20
7341;DHT22;6870;50.944;6.932;2022-10-31T01:23:34;22.80;42.00
7341;DHT22;6870;50.944;6.932;2022-10-31T01:26:05;22.80;41.90
7341;DHT22;6870;50.944;6.932;2022-10-31T01:28:37;22.80;41.70
7341;DHT22;6870;50.944;6.932;2022-10-31T01:31:08;22.80;42.00
7341;DHT22;6870;50.944;6.932;2022-10-31T01:33:37;22.90;42.10
7341;DHT22;6870;50.944;6.932;2022-10-31T01:36:15;22.80;42.00
7341;DHT22;6870;50.944;6.932;2022-10-31T01:38:44;22.70;41.80
7341;DHT22;6870;50.944;6.932;2022-10-31T01:41:15;23.00;41.70
7341;DHT22;6870;50.944;6.932;2022-10-31T01:43:47;22.80;42.00
7341;DHT22;6870;50.944;6.932;2022-10-31T01:46:20;22.70;41.00
7341;DHT22;6870;50.944;6.932;2022-10-31T01:48:51;22.80;41.70
7341;DHT22;6870;50.944;6.932;2022-10-31T01:51:25;22.70;41.80
7341;DHT22;6870;50.944;6.932;2022-10-31T01:54:00;22.90;41.90
7341;DHT22;6870;50.944;6.932;2022-10-31T01:56:29;22.90;41.40
7341;DHT22;6870;50.944;6.932;2022-10-31T01:58:59;23.00;41.60
7341;DHT22;6870;50.944;6.932;2022-10-31T02:01:28;22.60;41.80
7341;DHT22;6870;50.944;6.932;2022-10-31T02:03:56;22.70;41.30
7341;DHT22;6870;50.944;6.932;2022-10-31T02:06:33;23.00;42.20
7341;DHT22;6870;50.944;6.932;2022-10-31T02:09:05;22.70;41.90
7341;DHT22;6870;50.944;6.932;2022-10-31T02:11:34;22.60;41.70
7341;DHT22;6870;50.944;6.932;2022-10-31T02:14:04;22.70;41.80
7341;DHT22;6870;50.944;6.932;2022-10-31T02:16:32;22.90;42.10
7341;DHT22;6870;50.944;6.932;2022-10-31T02:19:00;22.80;42.10
7341;DHT22;6870;50.944;6.932;2022-10-31T02:21:37;22.90;42.20
7341;DHT22;6870;50.944;6.932;2022-10-31T02:24:43;22.70;41.90
7341;DHT22;6870;50.944;6.932;2022-10-31T02:27:48;22.60;41.80
7341;DHT22;6870;50.944;6.932;2022-10-31T02:30:29;22.60;38.40
7341;DHT22;6870;50.944;6.932;2022-10-31T02:33:15;22.80;42.00
7341;DHT22;6870;50.944;6.932;2022-10-31T02:35:55;22.90;42.30
7341;DHT22;6870;50.944;6.932;2022-10-31T02:38:42;22.50;40.70
7341;DHT22;6870;50.944;6.932;2022-10-31T02:41:20;22.70;41.00
7341;DHT22;6870;50.944;6.932;2022-10-31T02:44:00;22.80;41.00
7341;DHT22;6870;50.944;6.932;2022-10-31T02:46:35;22.80;40.80
7341;DHT22;6870;50.944;6.932;2022-10-31T02:49:12;22.60;40.70
7341;DHT22;6870;50.944;6.932;2022-10-31T02:51:45;22.70;41.00
7341;DHT22;6870;50.944;6.932;2022-10-31T02:54:24;22.80;41.20
7341;DHT22;6870;50.944;6.932;2022-10-31T02:56:56;22.70;41.40
7341;DHT22;6870;50.944;6.932;2022-10-31T02:59:26;22.80;41.50
7341;DHT22;6870;50.944;6.932;2022-10-31T03:02:06;22.50;41.50
7341;DHT22;6870;50.944;6.932;2022-10-31T03:05:09;22.60;41.40
7341;DHT22;6870;50.944;6.932;2022-10-31T03:07:47;22.60;41.70
7341;DHT22;6870;50.944;6.932;2022-10-31T03:10:31;22.70;41.80
7341;DHT22;6870;50.944;6.932;2022-10-31T03:13:09;22.80;41.90
7341;DHT22;6870;50.944;6.932;2022-10-31T03:15:44;22.70;42.00
7341;DHT22;6870;50.944;6.932;2022-10-31T03:18:15;22.90;42.40
7341;DHT22;6870;50.944;6.932;2022-10-31T03:20:53;22.70;42.20
7341;DHT22;6870;50.944;6.932;2022-10-31T03:23:24;22.60;42.20
7341;DHT22;6870;50.944;6.932;2022-10-31T03:25:53;22.80;42.70
7341;DHT22;6870;50.944;6.932;2022-10-31T03:28:25;22.70;42.60
7341;DHT22;6870;50.944;6.932;2022-10-31T03:30:56;22.60;42.40
7341;DHT22;6870;50.944;6.932;2022-10-31T03:33:33;22.90;42.60
7341;DHT22;6870;50.944;6.932;2022-10-31T03:36:06;22.70;42.80
7341;DHT22;6870;50.944;6.932;2022-10-31T03:38:35;22.80;42.90
7341;DHT22;6870;50.944;6.932;2022-10-31T03:41:05;23.00;43.10
7341;DHT22;6870;50.944;6.932;2022-10-31T03:43:42;22.80;43.20
7341;DHT22;6870;50.944;6.932;2022-10-31T03:46:14;22.70;43.30
7341;DHT22;6870;50.944;6.932;2022-10-31T03:48:42;22.50;43.30
7341;DHT22;6870;50.944;6.932;2022-10-31T03:51:15;22.30;43.40
7341;DHT22;6870;50.944;6.932;2022-10-31T03:53:47;22.70;43.90
7341;DHT22;6870;50.944;6.932;2022-10-31T03:56:24;22.80;44.10
7341;DHT22;6870;50.944;6.932;2022-10-31T03:59:00;22.70;44.20
7341;DHT22;6870;50.944;6.932;2022-10-31T04:01:31;22.70;44.30
7341;DHT22;6870;50.944;6.932;2022-10-31T04:04:01;22.80;44.60
7341;DHT22;6870;50.944;6.932;2022-10-31T04:06:32;22.50;44.70
7341;DHT22;6870;50.944;6.932;2022-10-31T04:09:03;22.70;45.10
7341;DHT22;6870;50.944;6.932;2022-10-31T04:11:35;22.70;45.40
7341;DHT22;6870;50.944;6.932;2022-10-31T04:14:04;22.80;45.60
7341;DHT22;6870;50.944;6.932;2022-10-31T04:16:34;22.90;45.50
7341;DHT22;6870;50.944;6.932;2022-10-31T04:19:01;22.60;45.40
7341;DHT22;6870;50.944;6.932;2022-10-31T04:21:31;22.90;46.30
7341;DHT22;6870;50.944;6.932;2022-10-31T04:23:59;22.70;46.50
7341;DHT22;6870;50.944;6.932;2022-10-31T04:26:27;22.70;46.60
7341;DHT22;6870;50.944;6.932;2022-10-31T04:28:55;22.70;46.90
7341;DHT22;6870;50.944;6.932;2022-10-31T04:31:23;22.60;46.70
7341;DHT22;6870;50.944;6.932;2022-10-31T04:33:51;22.70;46.80
7341;DHT22;6870;50.944;6.932;2022-10-31T04:36:19;22.70;46.80
7341;DHT22;6870;50.944;6.932;2022-10-31T04:38:48;22.60;46.80
7341;DHT22;6870;50.944;6.932;2022-10-31T04:41:16;22.70;47.00
7341;DHT22;6870;50.944;6.932;2022-10-31T04:43:44;23.00;47.30
7341;DHT22;6870;50.944;6.932;2022-10-31T04:46:12;22.60;47.00
7341;DHT22;6870;50.944;6.932;2022-10-31T04:48:40;22.90;47.40
7341;DHT22;6870;50.944;6.932;2022-10-31T04:51:08;23.00;47.50
7341;DHT22;6870;50.944;6.932;2022-10-31T04:53:36;22.80;47.30
7341;DHT22;6870;50.944;6.932;2022-10-31T04:56:07;22.70;47.20
7341;DHT22;6870;50.944;6.932;2022-10-31T04:58:35;22.60;48.00
7341;DHT22;6870;50.944;6.932;2022-10-31T05:01:02;23.00;47.70
7341;DHT22;6870;50.944;6.932;2022-10-31T05:03:31;22.70;47.50
7341;DHT22;6870;50.944;6.932;2022-10-31T05:05:59;22.60;47.40
7341;DHT22;6870;50.944;6.932;2022-10-31T05:08:27;22.50;47.40
7341;DHT22;6870;50.944;6.932;2022-10-31T05:10:55;22.60;47.70
7341;DHT22;6870;50.944;6.932;2022-10-31T05:13:31;22.80;47.30
7341;DHT22;6870;50.944;6.932;2022-10-31T05:15:59;22.70;47.50
7341;DHT22;6870;50.944;6.932;2022-10-31T05:18:27;22.70;48.10
7341;DHT22;6870;50.944;6.932;2022-10-31T05:20:55;22.60;47.40
7341;DHT22;6870;50.944;6.932;2022-10-31T05:23:23;22.70;49.40
7341;DHT22;6870;50.944;6.932;2022-10-31T05:25:51;22.90;47.70
7341;DHT22;6870;50.944;6.932;2022-10-31T05:28:19;22.80;49.00
7341;DHT22;6870;50.944;6.932;2022-10-31T05:30:49;22.80;48.90
7341;DHT22;6870;50.944;6.932;2022-10-31T05:33:17;22.80;48.90
7341;DHT22;6870;50.944;6.932;2022-10-31T05:35:45;22.70;49.20
7341;DHT22;6870;50.944;6.932;2022-10-31T05:38:13;22.70;49.40
7341;DHT22;6870;50.944;6.932;2022-10-31T05:40:41;22.80;48.70
7341;DHT22;6870;50.944;6.932;2022-10-31T05:43:09;22.80;49.70
7341;DHT22;6870;50.944;6.932;2022-10-31T05:45:37;23.00;50.10
7341;DHT22;6870;50.944;6.932;2022-10-31T05:48:08;22.80;50.10
7341;DHT22;6870;50.944;6.932;2022-10-31T05:50:36;22.70;50.50
7341;DHT22;6870;50.944;6.932;2022-10-31T05:53:04;22.70;50.40
7341;DHT22;6870;50.944;6.932;2022-10-31T05:55:33;22.60;50.20
7341;DHT22;6870;50.944;6.932;2022-10-31T05:58:01;22.80;50.20
7341;DHT22;6870;50.944;6.932;2022-10-31T06:00:29;22.50;50.50
7341;DHT22;6870;50.944;6.932;2022-10-31T06:02:58;22.70;50.70
7341;DHT22;6870;50.944;6.932;2022-10-31T06:05:29;22.80;51.00
7341;DHT22;6870;50.944;6.932;2022-10-31T06:07:58;22.60;51.20
7341;DHT22;6870;50.944;6.932;2022-10-31T06:10:27;22.60;51.10
7341;DHT22;6870;50.944;6.932;2022-10-31T06:12:55;22.60;51.40
7341;DHT22;6870;50.944;6.932;2022-10-31T06:15:24;22.50;51.20
7341;DHT22;6870;50.944;6.932;2022-10-31T06:17:59;22.90;51.50
7341;DHT22;6870;50.944;6.932;2022-10-31T06:20:30;22.70;51.30
7341;DHT22;6870;50.944;6.932;2022-10-31T06:22:59;22.60;51.20
7341;DHT22;6870;50.944;6.932;2022-10-31T06:25:28;22.50;51.50
7341;DHT22;6870;50.944;6.932;2022-10-31T06:27:56;22.80;51.60
7341;DHT22;6870;50.944;6.932;2022-10-31T06:30:24;22.90;51.50
7341;DHT22;6870;50.944;6.932;2022-10-31T06:32:52;22.80;51.60
7341;DHT22;6870;50.944;6.932;2022-10-31T06:35:20;22.60;51.60
7341;DHT22;6870;50.944;6.932;2022-10-31T06:37:53;22.30;51.30
7341;DHT22;6870;50.944;6.932;2022-10-31T06:40:22;22.50;51.30
7341;DHT22;6870;50.944;6.932;2022-10-31T06:42:56;22.70;51.00
7341;DHT22;6870;50.944;6.932;2022-10-31T06:45:25;22.80;51.70
7341;DHT22;6870;50.944;6.932;2022-10-31T06:47:54;22.90;51.90
7341;DHT22;6870;50.944;6.932;2022-10-31T06:50:42;22.60;51.60
7341;DHT22;6870;50.944;6.932;2022-10-31T06:53:11;22.70;51.70
7341;DHT22;6870;50.944;6.932;2022-10-31T06:55:41;22.70;51.60
7341;DHT22;6870;50.944;6.932;2022-10-31T06:58:10;22.60;51.30
7341;DHT22;6870;50.944;6.932;2022-10-31T07:00:38;22.70;51.70
7341;DHT22;6870;50.944;6.932;2022-10-31T07:03:10;22.70;51.20
7341;DHT22;6870;50.944;6.932;2022-10-31T07:05:39;22.70;51.70
7341;DHT22;6870;50.944;6.932;2022-10-31T07:08:10;22.90;51.70
7341;DHT22;6870;50.944;6.932;2022-10-31T07:10:42;22.60;51.60
7341;DHT22;6870;50.944;6.932;2022-10-31T07:13:12;22.80;51.50
7341;DHT22;6870;50.944;6.932;2022-10-31T07:15:42;22.60;51.50
7341;DHT22;6870;50.944;6.932;2022-10-31T07:18:11;22.80;51.60
7341;DHT22;6870;50.944;6.932;2022-10-31T07:20:40;22.90;51.80
7341;DHT22;6870;50.944;6.932;2022-10-31T07:23:09;23.20;51.40
7341;DHT22;6870;50.944;6.932;2022-10-31T07:25:40;22.80;51.20
7341;DHT22;6870;50.944;6.932;2022-10-31T07:28:09;22.90;51.40
7341;DHT22;6870;50.944;6.932;2022-10-31T07:30:37;22.70;51.20
7341;DHT22;6870;50.944;6.932;2022-10-31T07:33:05;22.80;51.20
7341;DHT22;6870;50.944;6.932;2022-10-31T07:35:34;22.70;51.10
7341;DHT22;6870;50.944;6.932;2022-10-31T07:38:08;23.30;50.80
7341;DHT22;6870;50.944;6.932;2022-10-31T07:40:38;22.80;50.70
7341;DHT22;6870;50.944;6.932;2022-10-31T07:43:07;23.10;50.50
7341;DHT22;6870;50.944;6.932;2022-10-31T07:45:40;23.40;51.00
7341;DHT22;6870;50.944;6.932;2022-10-31T07:48:08;22.90;50.90
7341;DHT22;6870;50.944;6.932;2022-10-31T07:50:36;22.80;50.60
7341;DHT22;6870;50.944;6.932;2022-10-31T07:53:06;23.00;50.30
7341;DHT22;6870;50.944;6.932;2022-10-31T07:55:35;23.40;51.10
7341;DHT22;6870;50.944;6.932;2022-10-31T07:58:06;23.00;50.70
7341;DHT22;6870;50.944;6.932;2022-10-31T08:00:36;22.80;50.40
7341;DHT22;6870;50.944;6.932;2022-10-31T08:03:05;22.90;50.30
7341;DHT22;6870;50.944;6.932;2022-10-31T08:05:35;23.30;50.70
7341;DHT22;6870;50.944;6.932;2022-10-31T08:08:04;23.40;50.80
7341;DHT22;6870;50.944;6.932;2022-10-31T08:10:33;23.00;50.10
7341;DHT22;6870;50.944;6.932;2022-10-31T08:13:04;23.20;50.60
7341;DHT22;6870;50.944;6.932;2022-10-31T08:15:33;23.10;49.70
7341;DHT22;6870;50.944;6.932;2022-10-31T08:18:05;23.30;50.80
7341;DHT22;6870;50.944;6.932;2022-10-31T08:20:33;23.30;50.50
7341;DHT22;6870;50.944;6.932;2022-10-31T08:23:02;23.00;50.20
7341;DHT22;6870;50.944;6.932;2022-10-31T08:25:33;23.30;50.40
7341;DHT22;6870;50.944;6.932;2022-10-31T08:28:06;23.50;50.40
7341;DHT22;6870;50.944;6.932;2022-10-31T08:30:37;22.90;49.00
7341;DHT22;6870;50.944;6.932;2022-10-31T08:33:08;23.00;49.80
7341;DHT22;6870;50.944;6.932;2022-10-31T08:35:37;23.40;50.20
7341;DHT22;6870;50.944;6.932;2022-10-31T08:38:06;23.40;50.10
7341;DHT22;6870;50.944;6.932;2022-10-31T08:40:35;23.50;50.20
7341;DHT22;6870;50.944;6.932;2022-10-31T08:43:06;23.50;50.20
7341;DHT22;6870;50.944;6.932;2022-10-31T08:45:36;23.00;49.50
7341;DHT22;6870;50.944;6.932;2022-10-31T08:48:09;23.50;50.10
7341;DHT22;6870;50.944;6.932;2022-10-31T08:50:38;23.70;50.20
7341;DHT22;6870;50.944;6.932;2022-10-31T08:53:09;23.20;49.00
7341;DHT22;6870;50.944;6.932;2022-10-31T08:55:40;23.30;49.60
7341;DHT22;6870;50.944;6.932;2022-10-31T08:58:12;23.40;50.50
7341;DHT22;6870;50.944;6.932;2022-10-31T09:00:41;23.10;48.90
7341;DHT22;6870;50.944;6.932;2022-10-31T09:03:11;23.60;49.80
7341;DHT22;6870;50.944;6.932;2022-10-31T09:05:40;23.40;49.50
7341;DHT22;6870;50.944;6.932;2022-10-31T09:08:09;23.30;49.50
7341;DHT22;6870;50.944;6.932;2022-10-31T09:10:43;23.40;49.40
7341;DHT22;6870;50.944;6.932;2022-10-31T09:13:14;23.50;49.60
7341;DHT22;6870;50.944;6.932;2022-10-31T09:15:44;23.60;49.10
7341;DHT22;6870;50.944;6.932;2022-10-31T09:18:15;23.70;49.20
7341;DHT22;6870;50.944;6.932;2022-10-31T09:20:46;23.50;49.40
7341;DHT22;6870;50.944;6.932;2022-10-31T09:23:16;23.50;49.20
7341;DHT22;6870;50.944;6.932;2022-10-31T09:25:45;23.70;48.50
7341;DHT22;6870;50.944;6.932;2022-10-31T09:28:19;23.00;37.30
7341;DHT22;6870;50.944;6.932;2022-10-31T09:30:50;23.00;34.20
7341;DHT22;6870;50.944;6.932;2022-10-31T09:33:20;22.80;35.90
7341;DHT22;6870;50.944;6.932;2022-10-31T09:35:49;22.70;34.10
7341;DHT22;6870;50.944;6.932;2022-10-31T09:38:18;22.20;33.80
7341;DHT22;6870;50.944;6.932;2022-10-31T09:40:47;22.10;33.90
7341;DHT22;6870;50.944;6.932;2022-10-31T09:43:27;22.10;33.70
7341;DHT22;6870;50.944;6.932;2022-10-31T09:46:03;22.00;33.50
7341;DHT22;6870;50.944;6.932;2022-10-31T09:48:49;22.10;32.30
7341;DHT22;6870;50.944;6.932;2022-10-31T09:51:25;22.00;31.70
7341;DHT22;6870;50.944;6.932;2022-10-31T09:54:00;22.00;32.40
7341;DHT22;6870;50.944;6.932;2022-10-31T09:56:31;22.20;33.00
7341;DHT22;6870;50.944;6.932;2022-10-31T09:59:05;22.20;32.20
7341;DHT22;6870;50.944;6.932;2022-10-31T10:01:42;22.30;32.90
7341;DHT22;6870;50.944;6.932;2022-10-31T10:04:30;22.40;32.00
7341;DHT22;6870;50.944;6.932;2022-10-31T10:07:12;22.70;31.00
7341;DHT22;6870;50.944;6.932;2022-10-31T10:09:45;22.30;31.10
7341;DHT22;6870;50.944;6.932;2022-10-31T10:12:19;22.90;34.60
7341;DHT22;6870;50.944;6.932;2022-10-31T10:15:06;23.00;31.40
7341;DHT22;6870;50.944;6.932;2022-10-31T10:17:59;22.90;32.20
7341;DHT22;6870;50.944;6.932;2022-10-31T10:20:37;22.80;33.40
7341;DHT22;6870;50.944;6.932;2022-10-31T10:23:23;23.00;31.20
7341;DHT22;6870;50.944;6.932;2022-10-31T10:26:02;23.50;32.40
7341;DHT22;6870;50.944;6.932;2022-10-31T10:28:45;23.50;31.70
7341;DHT22;6870;50.944;6.932;2022-10-31T10:31:20;23.60;31.10
7341;DHT22;6870;50.944;6.932;2022-10-31T10:33:59;23.60;30.20
7341;DHT22;6870;50.944;6.932;2022-10-31T10:36:33;23.40;29.40
7341;DHT22;6870;50.944;6.932;2022-10-31T10:39:08;23.10;31.10
7341;DHT22;6870;50.944;6.932;2022-10-31T10:41:41;23.10;30.10
7341;DHT22;6870;50.944;6.932;2022-10-31T10:44:11;23.20;31.50
7341;DHT22;6870;50.944;6.932;2022-10-31T10:46:48;23.40;30.50
7341;DHT22;6870;50.944;6.932;2022-10-31T10:49:43;23.30;30.50
7341;DHT22;6870;50.944;6.932;2022-10-31T10:52:18;23.50;30.50
7341;DHT22;6870;50.944;6.932;2022-10-31T10:55:12;23.30;30.10
7341;DHT22;6870;50.944;6.932;2022-10-31T10:57:54;23.00;30.40
7341;DHT22;6870;50.944;6.932;2022-10-31T11:00:26;22.90;30.70
7341;DHT22;6870;50.944;6.932;2022-10-31T11:02:56;22.70;30.70
7341;DHT22;6870;50.944;6.932;2022-10-31T11:05:30;22.80;32.10
7341;DHT22;6870;50.944;6.932;2022-10-31T11:08:02;22.70;31.40
7341;DHT22;6870;50.944;6.932;2022-10-31T11:10:31;22.80;30.70
7341;DHT22;6870;50.944;6.932;2022-10-31T11:13:04;22.90;30.30
7341;DHT22;6870;50.944;6.932;2022-10-31T11:15:37;22.80;32.60
7341;DHT22;6870;50.944;6.932;2022-10-31T11:18:20;22.90;31.20
7341;DHT22;6870;50.944;6.932;2022-10-31T11:20:57;23.00;30.20
7341;DHT22;6870;50.944;6.932;2022-10-31T11:23:27;23.30;31.10
7341;DHT22;6870;50.944;6.932;2022-10-31T11:25:57;23.30;30.30
7341;DHT22;6870;50.944;6.932;2022-10-31T11:28:27;22.90;29.90
7341;DHT22;6870;50.944;6.932;2022-10-31T11:30:58;23.10;30.80
7341;DHT22;6870;50.944;6.932;2022-10-31T11:33:31;22.90;30.30
7341;DHT22;6870;50.944;6.932;2022-10-31T11:36:02;23.00;30.70
7341;DHT22;6870;50.944;6.932;2022-10-31T11:38:42;22.70;30.70
7341;DHT22;6870;50.944;6.932;2022-10-31T11:41:13;22.80;30.80
7341;DHT22;6870;50.944;6.932;2022-10-31T11:43:47;23.00;31.70
7341;DHT22;6870;50.944;6.932;2022-10-31T11:46:21;22.80;30.50
7341;DHT22;6870;50.944;6.932;2022-10-31T11:48:54;22.70;30.30
7341;DHT22;6870;50.944;6.932;2022-10-31T11:51:26;22.90;30.80
7341;DHT22;6870;50.944;6.932;2022-10-31T11:53:58;23.50;31.30
7341;DHT22;6870;50.944;6.932;2022-10-31T11:56:38;22.80;30.30
7341;DHT22;6870;50.944;6.932;2022-10-31T11:59:17;22.90;30.30
7341;DHT22;6870;50.944;6.932;2022-10-31T12:01:50;23.00;30.30
7341;DHT22;6870;50.944;6.932;2022-10-31T12:04:26;23.40;30.20
7341;DHT22;6870;50.944;6.932;2022-10-31T12:06:57;23.00;29.80
7341;DHT22;6870;50.944;6.932;2022-10-31T12:09:27;23.20;30.00
7341;DHT22;6870;50.944;6.932;2022-10-31T12:12:10;23.10;30.10
7341;DHT22;6870;50.944;6.932;2022-10-31T12:14:52;23.50;30.40
7341;DHT22;6870;50.944;6.932;2022-10-31T12:17:31;23.70;30.00
7341;DHT22;6870;50.944;6.932;2022-10-31T12:20:16;23.60;30.50
7341;DHT22;6870;50.944;6.932;2022-10-31T12:22:56;23.70;30.50
7341;DHT22;6870;50.944;6.932;2022-10-31T12:25:39;24.00;30.70
7341;DHT22;6870;50.944;6.932;2022-10-31T12:28:32;24.00;30.70
7341;DHT22;6870;50.944;6.932;2022-10-31T12:34:32;24.40;31.40
7341;DHT22;6870;50.944;6.932;2022-10-31T12:37:24;24.20;31.50
7341;DHT22;6870;50.944;6.932;2022-10-31T12:40:11;23.90;29.90
7341;DHT22;6870;50.944;6.932;2022-10-31T12:43:01;23.50;29.00
7341;DHT22;6870;50.944;6.932;2022-10-31T12:45:43;23.80;29.80
7341;DHT22;6870;50.944;6.932;2022-10-31T12:51:39;23.60;29.90
7341;DHT22;6870;50.944;6.932;2022-10-31T12:54:29;23.70;31.40
7341;DHT22;6870;50.944;6.932;2022-10-31T12:57:16;23.70;30.00
7341;DHT22;6870;50.944;6.932;2022-10-31T12:59:50;23.60;30.00
7341;DHT22;6870;50.944;6.932;2022-10-31T13:02:23;23.60;31.30
7341;DHT22;6870;50.944;6.932;2022-10-31T13:04:57;23.50;31.60
7341;DHT22;6870;50.944;6.932;2022-10-31T13:07:31;23.70;31.20
7341;DHT22;6870;50.944;6.932;2022-10-31T13:10:07;23.80;31.20
7341;DHT22;6870;50.944;6.932;2022-10-31T13:12:43;23.80;31.00
7341;DHT22;6870;50.944;6.932;2022-10-31T13:15:17;23.50;30.70
7341;DHT22;6870;50.944;6.932;2022-10-31T13:17:49;23.80;31.90
7341;DHT22;6870;50.944;6.932;2022-10-31T13:20:26;23.90;31.90
7341;DHT22;6870;50.944;6.932;2022-10-31T13:23:05;23.90;31.80
7341;DHT22;6870;50.944;6.932;2022-10-31T13:26:03;23.60;32.00
7341;DHT22;6870;50.944;6.932;2022-10-31T13:28:37;23.70;32.10
7341;DHT22;6870;50.944;6.932;2022-10-31T13:31:08;23.90;32.80
7341;DHT22;6870;50.944;6.932;2022-10-31T13:33:46;23.80;33.00
7341;DHT22;6870;50.944;6.932;2022-10-31T13:36:21;24.10;33.50
7341;DHT22;6870;50.944;6.932;2022-10-31T13:38:56;23.80;33.20
7341;DHT22;6870;50.944;6.932;2022-10-31T13:41:39;24.10;33.70
7341;DHT22;6870;50.944;6.932;2022-10-31T13:44:14;23.70;33.60
7341;DHT22;6870;50.944;6.932;2022-10-31T13:46:45;23.70;33.60
7341;DHT22;6870;50.944;6.932;2022-10-31T13:49:24;23.70;33.60
7341;DHT22;6870;50.944;6.932;2022-10-31T13:52:21;23.70;33.90
7341;DHT22;6870;50.944;6.932;2022-10-31T13:54:52;23.90;34.20
7341;DHT22;6870;50.944;6.932;2022-10-31T13:57:31;23.60;34.00
7341;DHT22;6870;50.944;6.932;2022-10-31T14:00:04;23.70;34.30
7341;DHT22;6870;50.944;6.932;2022-10-31T14:02:36;23.50;34.20
7341;DHT22;6870;50.944;6.932;2022-10-31T14:05:15;23.80;34.60
7341;DHT22;6870;50.944;6.932;2022-10-31T14:07:49;23.60;34.50
7341;DHT22;6870;50.944;6.932;2022-10-31T14:10:22;23.60;34.60
7341;DHT22;6870;50.944;6.932;2022-10-31T14:13:04;23.60;34.60
7341;DHT22;6870;50.944;6.932;2022-10-31T14:15:34;23.70;34.80
7341;DHT22;6870;50.944;6.932;2022-10-31T14:18:05;23.60;34.80
7341;DHT22;6870;50.944;6.932;2022-10-31T14:20:39;23.70;35.00
7341;DHT22;6870;50.944;6.932;2022-10-31T14:23:12;23.70;34.00
7341;DHT22;6870;50.944;6.932;2022-10-31T14:29:23;23.00;31.70
7341;DHT22;6870;50.944;6.932;2022-10-31T14:31:55;23.10;32.20
7341;DHT22;6870;50.944;6.932;2022-10-31T14:34:27;22.90;32.20
7341;DHT22;6870;50.944;6.932;2022-10-31T14:37:32;23.00;32.80
7341;DHT22;6870;50.944;6.932;2022-10-31T14:40:21;22.70;32.40
7341;DHT22;6870;50.944;6.932;2022-10-31T14:43:14;22.70;32.20
7341;DHT22;6870;50.944;6.932;2022-10-31T14:45:56;22.70;31.70
7341;DHT22;6870;50.944;6.932;2022-10-31T14:48:42;22.40;32.60
7341;DHT22;6870;50.944;6.932;2022-10-31T14:51:20;22.90;32.20
7341;DHT22;6870;50.944;6.932;2022-10-31T14:53:50;22.90;31.90
7341;DHT22;6870;50.944;6.932;2022-10-31T14:56:22;22.60;32.60
7341;DHT22;6870;50.944;6.932;2022-10-31T14:58:54;22.60;31.90
7341;DHT22;6870;50.944;6.932;2022-10-31T15:01:27;22.60;32.30
7341;DHT22;6870;50.944;6.932;2022-10-31T15:04:02;22.50;31.60
7341;DHT22;6870;50.944;6.932;2022-10-31T15:06:52;22.40;31.50
7341;DHT22;6870;50.944;6.932;2022-10-31T15:09:23;22.40;31.30
7341;DHT22;6870;50.944;6.932;2022-10-31T15:11:52;22.40;30.90
7341;DHT22;6870;50.944;6.932;2022-10-31T15:14:23;22.40;31.20
7341;DHT22;6870;50.944;6.932;2022-10-31T15:16:55;23.00;34.20
7341;DHT22;6870;50.944;6.932;2022-10-31T15:19:26;22.90;33.30
7341;DHT22;6870;50.944;6.932;2022-10-31T15:21:56;23.00;33.20
7341;DHT22;6870;50.944;6.932;2022-10-31T15:24:34;23.50;33.50
7341;DHT22;6870;50.944;6.932;2022-10-31T15:27:03;23.20;32.90
7341;DHT22;6870;50.944;6.932;2022-10-31T15:29:32;23.60;33.40
7341;DHT22;6870;50.944;6.932;2022-10-31T15:32:17;23.20;33.00
7341;DHT22;6870;50.944;6.932;2022-10-31T15:34:47;23.60;33.50
7341;DHT22;6870;50.944;6.932;2022-10-31T15:37:16;23.10;32.80
7341;DHT22;6870;50.944;6.932;2022-10-31T15:39:47;23.40;33.20
7341;DHT22;6870;50.944;6.932;2022-10-31T15:42:19;23.50;33.30
7341;DHT22;6870;50.944;6.932;2022-10-31T15:44:52;23.00;32.90
7341;DHT22;6870;50.944;6.932;2022-10-31T15:47:30;23.50;33.50
7341;DHT22;6870;50.944;6.932;2022-10-31T15:49:59;23.30;33.40
7341;DHT22;6870;50.944;6.932;2022-10-31T15:52:32;23.60;33.70
7341;DHT22;6870;50.944;6.932;2022-10-31T15:55:05;23.30;34.30
7341;DHT22;6870;50.944;6.932;2022-10-31T15:57:44;23.40;33.60
7341;DHT22;6870;50.944;6.932;2022-10-31T16:00:25;23.40;33.70
7341;DHT22;6870;50.944;6.932;2022-10-31T16:03:07;23.30;33.80
7341;DHT22;6870;50.944;6.932;2022-10-31T16:05:49;23.50;34.20
7341;DHT22;6870;50.944;6.932;2022-10-31T16:08:31;23.30;34.20
7341;DHT22;6870;50.944;6.932;2022-10-31T16:11:14;23.50;34.50
7341;DHT22;6870;50.944;6.932;2022-10-31T16:13:54;23.00;34.10
7341;DHT22;6870;50.944;6.932;2022-10-31T16:16:24;23.50;35.00
7341;DHT22;6870;50.944;6.932;2022-10-31T16:19:04;23.20;34.60
7341;DHT22;6870;50.944;6.932;2022-10-31T16:21:35;22.90;34.60
7341;DHT22;6870;50.944;6.932;2022-10-31T16:24:13;23.00;34.70
7341;DHT22;6870;50.944;6.932;2022-10-31T16:26:48;23.50;35.30
7341;DHT22;6870;50.944;6.932;2022-10-31T16:29:27;22.90;34.70
7341;DHT22;6870;50.944;6.932;2022-10-31T16:31:56;22.90;34.90
7341;DHT22;6870;50.944;6.932;2022-10-31T16:34:26;22.90;35.10
7341;DHT22;6870;50.944;6.932;2022-10-31T16:36:54;23.00;35.20
7341;DHT22;6870;50.944;6.932;2022-10-31T16:39:22;22.90;35.20
7341;DHT22;6870;50.944;6.932;2022-10-31T16:41:52;23.30;35.80
7341;DHT22;6870;50.944;6.932;2022-10-31T16:44:23;22.80;36.00
7341;DHT22;6870;50.944;6.932;2022-10-31T16:47:08;22.90;36.20
7341;DHT22;6870;50.944;6.932;2022-10-31T16:49:39;23.10;36.40
7341;DHT22;6870;50.944;6.932;2022-10-31T16:52:07;22.90;36.50